Garden Spring, Nevada Weather observations

Data are for 10 minute period ending at time listed.
 Day   Time    Ave.   Ave.  Ave.  Vector   Max.   Stn.    Total    Solar   Ave.  
  of    of     Air    Rel.  Wind   Wind    Wind   Baro.  Precip.   Rad.    Soil  
Year   Day     Temp.  Hum.  Speed  Dir.    Gust   Pres.                    Temp. 
2015   (PST)    F      %     mph   deg.    mph     mb.     in.     W/m2     F    
--------------------------------------------------------------------------------- 
 108   11:00   70.1    15    7.7   165     16.0   851.7    0.00     938    59.3  
 108   12:00   71.2    13    8.1   183     16.5   851.3    0.00     982    60.2  
 108   13:00   73.8    10    6.5   228     16.3   850.7    0.00     962    62.4  
 108   14:00   73.9    11    7.0   190     18.3   850.2    0.00     885    65.1  
 108   15:00   75.2    10    5.5   213     14.8   849.6    0.00     799    67.5  
 108   16:00   75.0    11    6.9   179     22.8   849.1    0.00     568    68.8  
 108   17:00   74.3    10    6.6   170     16.3   848.9    0.00     392    69.6  
 108   18:00   69.9    11    6.8   140     13.9   849.1    0.00      73    69.3  
 108   19:00   66.6    13    4.4    98      9.7   849.9    0.00       1    69.0  
 108   20:00   65.2    16    6.4   344     25.9   850.7    0.00       0    68.5  
 108   21:00   61.5    22    3.6   276      8.2   850.6    0.00       0    67.5  
 108   22:00   56.8    26    4.7   269      7.7   850.6    0.00       0    66.5  
 108   23:00   54.6    26    4.5   268      6.8   850.8    0.00       0    65.8  
 109    0:00   53.2    26    4.2   267      6.5   851.2    0.00       0    64.8  
 109    1:00   52.6    25    4.2   272      6.9   851.3    0.00       0    64.0  
 109    2:00   53.9    24    4.3   276      7.6   851.1    0.00       0    63.2  
 109    3:00   53.3    24    4.5   272      7.7   851.3    0.00       0    62.4  
 109    4:00   53.0    26    4.8   265      7.8   851.3    0.00       0    61.6  
 109    5:00   51.8    28    4.8   265      8.2   851.3    0.00       1    60.9  
 109    6:00   52.7    28    4.6   273      6.8   851.7    0.00      58    60.4  
 109    7:00   63.1    21    3.2   295      8.8   852.2    0.00     241    60.9  
 109    8:00   67.3    16    5.1    74     10.2   852.4    0.00     448    60.7  
 109    9:00   68.8    15    6.4    85     14.0   852.3    0.00     673    60.7  
 109   10:00   70.9    14    4.5   122     12.8   852.3    0.00     830    61.4  

Return to Garden Spring, Nevada graphs page.


Western Regional Climate Center,wrcc@dri.edu